Time;durP1;ratioP1;P1;durP2;ratioP2;P2;SDS_P1;SDS_P2;PMS_P1;PMS_P2;Temp;Humidity;BMP_temperature;BMP_pressure;BME280_temperature;BME280_humidity;BME280_pressure;Samples;Min_cycle;Max_cycle;Signal;HPM_P1;HPM_P2
2023/04/24 00:02:00;;;;;;;0.98;0.40;;;12.90;99.90;;;;;;4992061;28;20566;-75
2023/04/24 00:04:26;;;;;;;1.30;0.40;;;12.90;99.90;;;;;;4988043;28;20022;-75
2023/04/24 00:06:56;;;;;;;1.08;0.47;;;12.90;99.90;;;;;;5005200;28;20038;-75
2023/04/24 00:09:22;;;;;;;1.35;0.60;;;12.90;99.90;;;;;;4985874;28;20079;-75
2023/04/24 00:11:48;;;;;;;3.13;0.45;;;12.90;99.90;;;;;;4991866;28;20088;-75
2023/04/24 00:14:14;;;;;;;2.00;0.60;;;12.90;99.90;;;;;;4990346;28;20366;-74
2023/04/24 00:16:39;;;;;;;1.15;0.50;;;12.90;99.90;;;;;;4987316;28;20014;-75
2023/04/24 00:19:06;;;;;;;0.57;0.40;;;12.90;99.90;;;;;;4999094;28;20041;-74
2023/04/24 00:21:32;;;;;;;0.85;0.63;;;12.90;99.90;;;;;;4984143;28;20328;-74
2023/04/24 00:24:08;;;;;;;1.73;0.55;;;12.80;99.90;;;;;;4997290;28;20092;-74
2023/04/24 00:26:34;;;;;;;1.67;0.70;;;12.80;99.90;;;;;;4980094;28;20508;-75
2023/04/24 00:29:03;;;;;;;1.60;0.50;;;12.80;99.90;;;;;;4981420;28;20076;-75
2023/04/24 00:31:29;;;;;;;0.80;0.30;;;12.80;99.90;;;;;;4985880;28;20573;-75
2023/04/24 00:33:54;;;;;;;1.30;0.38;;;12.80;99.90;;;;;;4979345;28;20117;-75
2023/04/24 00:36:20;;;;;;;2.00;0.40;;;12.90;99.90;;;;;;4983700;28;20040;-75
2023/04/24 00:38:52;;;;;;;0.70;0.30;;;12.90;99.90;;;;;;4983867;28;20037;-75
2023/04/24 00:41:18;;;;;;;1.05;0.40;;;12.80;99.90;;;;;;4982328;28;20088;-74
2023/04/24 00:43:44;;;;;;;0.93;0.30;;;12.80;99.90;;;;;;4988107;28;20057;-75
2023/04/24 00:46:13;;;;;;;0.75;0.40;;;12.80;99.90;;;;;;4985473;28;20038;-76
2023/04/24 00:48:40;;;;;;;0.98;0.50;;;12.90;99.90;;;;;;4987140;28;20026;-75
2023/04/24 00:51:05;;;;;;;0.82;0.32;;;12.80;99.90;;;;;;4999832;28;20034;-75
2023/04/24 00:53:33;;;;;;;1.98;0.40;;;12.90;99.90;;;;;;4991353;28;20034;-75
2023/04/24 00:56:00;;;;;;;1.13;0.50;;;12.90;99.90;;;;;;4990451;28;20026;-75
2023/04/24 00:58:26;;;;;;;2.58;0.50;;;12.90;99.90;;;;;;4986372;28;20168;-74
2023/04/24 01:00:53;;;;;;;1.73;0.57;;;12.90;99.90;;;;;;4986522;28;20113;-74
2023/04/24 01:03:26;;;;;;;2.25;0.60;;;12.90;99.90;;;;;;4987281;28;20023;-74
2023/04/24 01:05:54;;;;;;;1.67;0.40;;;12.90;99.90;;;;;;4988380;28;20030;-74
2023/04/24 01:08:24;;;;;;;0.68;0.45;;;13.00;99.90;;;;;;4986201;28;20129;-75
2023/04/24 01:10:52;;;;;;;0.63;0.40;;;12.90;99.90;;;;;;4987296;28;20031;-74
2023/04/24 01:13:19;;;;;;;0.52;0.40;;;13.00;99.90;;;;;;4984190;28;20049;-74
2023/04/24 01:15:51;;;;;;;2.15;0.60;;;12.90;99.90;;;;;;4987099;28;20375;-74
2023/04/24 01:18:21;;;;;;;1.42;0.47;;;12.90;99.90;;;;;;5000832;28;20026;-75
2023/04/24 01:20:48;;;;;;;1.05;0.52;;;12.90;99.90;;;;;;5002994;28;20112;-74
2023/04/24 01:23:13;;;;;;;2.40;0.63;;;12.90;99.90;;;;;;4985465;28;20436;-75
2023/04/24 01:25:42;;;;;;;0.70;0.30;;;12.90;99.90;;;;;;4988793;28;20128;-75
2023/04/24 01:28:17;;;;;;;0.50;0.30;;;12.90;99.90;;;;;;4987113;28;20026;-74
2023/04/24 01:30:43;;;;;;;2.65;0.50;;;12.90;99.90;;;;;;4985486;28;20038;-74
2023/04/24 01:33:09;;;;;;;1.48;0.40;;;12.80;99.90;;;;;;4989592;28;20233;-74
2023/04/24 01:35:38;;;;;;;0.85;0.60;;;12.90;99.90;;;;;;4991200;28;20068;-74
2023/04/24 01:38:05;;;;;;;0.93;0.50;;;12.80;99.90;;;;;;4980434;28;20034;-74
2023/04/24 01:40:32;;;;;;;3.17;0.80;;;12.80;99.90;;;;;;4987436;28;20023;-75
2023/04/24 01:43:00;;;;;;;1.13;0.60;;;12.70;99.90;;;;;;4991896;28;20107;-74
2023/04/24 01:45:29;;;;;;;1.65;0.60;;;12.70;99.90;;;;;;4987889;28;20033;-74
2023/04/24 01:48:00;;;;;;;1.20;0.63;;;12.60;99.90;;;;;;4985282;28;20429;-74
2023/04/24 01:50:31;;;;;;;1.00;0.40;;;12.60;99.90;;;;;;4985391;28;20022;-75
2023/04/24 01:52:57;;;;;;;0.80;0.55;;;12.50;99.90;;;;;;5003078;28;20907;-74
2023/04/24 01:55:22;;;;;;;2.67;0.60;;;12.50;99.90;;;;;;4990683;28;20109;-75
2023/04/24 01:57:49;;;;;;;0.55;0.40;;;12.50;99.90;;;;;;4989577;28;20026;-74
2023/04/24 02:00:18;;;;;;;2.55;0.70;;;12.50;99.90;;;;;;4987358;28;20030;-74
2023/04/24 02:02:44;;;;;;;1.55;0.60;;;12.50;99.90;;;;;;4989020;28;20034;-75
2023/04/24 02:05:13;;;;;;;1.90;0.47;;;12.40;99.90;;;;;;4984753;28;20038;-74
2023/04/24 02:07:39;;;;;;;1.42;0.47;;;12.40;99.90;;;;;;4984075;28;20030;-74
2023/04/24 02:10:09;;;;;;;6.28;0.73;;;12.40;99.90;;;;;;5002926;28;20495;-74
2023/04/24 02:12:40;;;;;;;1.90;0.57;;;12.30;99.90;;;;;;5008523;28;20015;-74
2023/04/24 02:15:06;;;;;;;2.50;0.52;;;12.30;99.90;;;;;;4987989;28;20113;-74
2023/04/24 02:17:35;;;;;;;2.30;0.60;;;12.30;99.90;;;;;;4988752;28;20110;-74
2023/04/24 02:20:00;;;;;;;2.65;0.75;;;12.30;99.90;;;;;;5005447;28;20417;-74
2023/04/24 02:22:26;;;;;;;1.00;0.40;;;12.30;99.90;;;;;;4986715;28;20062;-74
2023/04/24 02:24:58;;;;;;;0.90;0.57;;;12.30;99.90;;;;;;4992913;28;20041;-74
2023/04/24 02:27:32;;;;;;;3.33;0.68;;;12.20;99.90;;;;;;4986967;28;20030;-75
2023/04/24 02:30:02;;;;;;;1.30;0.70;;;12.20;99.90;;;;;;4986641;28;20124;-74
2023/04/24 02:32:34;;;;;;;1.85;0.55;;;12.20;99.90;;;;;;4985464;28;20542;-74
2023/04/24 02:34:59;;;;;;;0.95;0.40;;;12.20;99.90;;;;;;4985961;28;20096;-74
2023/04/24 02:37:25;;;;;;;0.98;0.63;;;12.20;99.90;;;;;;5001712;28;20034;-74
2023/04/24 02:39:50;;;;;;;2.33;0.43;;;12.10;99.90;;;;;;4987313;28;20066;-73
2023/04/24 02:42:16;;;;;;;2.20;0.60;;;12.10;99.90;;;;;;4989835;28;20038;-74
2023/04/24 02:44:45;;;;;;;3.33;0.90;;;12.00;99.90;;;;;;4987624;28;20026;-74
2023/04/24 02:47:13;;;;;;;0.63;0.50;;;12.10;99.90;;;;;;4989273;28;20026;-75
2023/04/24 02:49:42;;;;;;;1.40;0.55;;;12.10;99.90;;;;;;4985295;28;20033;-74
2023/04/24 02:52:10;;;;;;;0.80;0.40;;;12.00;99.90;;;;;;4990830;28;20053;-74
2023/04/24 02:54:36;;;;;;;0.80;0.40;;;11.90;99.90;;;;;;4998424;28;20035;-75
2023/04/24 02:57:04;;;;;;;0.80;0.50;;;12.00;99.90;;;;;;4986722;28;20408;-75
2023/04/24 02:59:33;;;;;;;2.33;0.70;;;11.90;99.90;;;;;;4985586;28;20136;-75
2023/04/24 03:01:59;;;;;;;1.42;0.50;;;11.90;99.90;;;;;;4988581;28;20539;-75
2023/04/24 03:04:27;;;;;;;0.65;0.43;;;11.90;99.90;;;;;;4991266;28;20113;-75
2023/04/24 03:06:56;;;;;;;0.60;0.47;;;11.90;99.90;;;;;;4991472;28;20035;-75
2023/04/24 03:09:28;;;;;;;1.40;0.40;;;11.90;99.90;;;;;;5003839;28;20022;-75
2023/04/24 03:11:58;;;;;;;2.38;0.50;;;11.90;99.90;;;;;;4986485;28;20069;-75
2023/04/24 03:14:26;;;;;;;1.58;0.65;;;11.90;99.90;;;;;;4988695;28;20026;-75
2023/04/24 03:16:52;;;;;;;1.60;0.70;;;11.90;99.90;;;;;;4989499;28;20030;-74
2023/04/24 03:19:18;;;;;;;2.35;0.80;;;11.90;99.90;;;;;;4987597;28;20034;-75
2023/04/24 03:21:46;;;;;;;4.88;0.98;;;11.90;99.90;;;;;;4988751;28;20057;-75
2023/04/24 03:24:12;;;;;;;2.00;0.63;;;11.90;99.90;;;;;;4992121;28;20114;-75
2023/04/24 03:26:37;;;;;;;1.70;0.80;;;11.90;99.90;;;;;;4985912;28;20453;-75
2023/04/24 03:29:06;;;;;;;3.38;0.60;;;11.90;99.90;;;;;;4988408;28;20030;-75
2023/04/24 03:31:31;;;;;;;2.10;0.63;;;11.90;99.90;;;;;;4983565;28;20049;-75
2023/04/24 03:33:57;;;;;;;2.88;0.50;;;11.90;99.90;;;;;;4986256;28;20049;-75
2023/04/24 03:36:23;;;;;;;2.85;0.75;;;11.80;99.90;;;;;;5004478;28;20030;-75
2023/04/24 03:38:48;;;;;;;1.40;0.47;;;11.80;99.90;;;;;;4983043;28;20034;-75
2023/04/24 03:41:17;;;;;;;2.28;0.63;;;11.70;99.90;;;;;;4988543;28;20516;-74
2023/04/24 03:43:46;;;;;;;2.75;0.52;;;11.70;99.90;;;;;;4989609;28;20364;-74
2023/04/24 03:46:12;;;;;;;1.35;0.45;;;11.70;99.90;;;;;;4985777;28;20025;-75
2023/04/24 03:48:38;;;;;;;3.95;0.70;;;11.60;99.90;;;;;;4992106;28;20038;-75
2023/04/24 03:51:03;;;;;;;1.58;0.60;;;11.60;99.90;;;;;;4990907;28;20030;-75
2023/04/24 03:53:29;;;;;;;2.13;0.50;;;11.50;99.90;;;;;;4995173;28;20046;-75
2023/04/24 03:55:58;;;;;;;1.08;0.50;;;11.50;99.90;;;;;;4988583;28;20037;-75
2023/04/24 03:58:23;;;;;;;2.33;0.50;;;11.50;99.90;;;;;;4993236;28;20126;-75
2023/04/24 04:00:50;;;;;;;0.85;0.40;;;11.50;99.90;;;;;;4992344;28;20116;-74
2023/04/24 04:03:16;;;;;;;1.15;0.45;;;11.40;99.90;;;;;;4993522;28;20495;-75
2023/04/24 04:05:41;;;;;;;3.63;0.80;;;11.40;99.90;;;;;;4988237;28;20061;-75
2023/04/24 04:08:07;;;;;;;3.80;1.15;;;11.50;99.90;;;;;;4987130;28;20045;-74
2023/04/24 04:10:33;;;;;;;3.78;1.08;;;11.40;99.90;;;;;;5007337;28;20058;-74
2023/04/24 04:12:58;;;;;;;1.15;0.43;;;11.40;99.90;;;;;;4986189;28;20387;-74
2023/04/24 04:15:24;;;;;;;2.15;0.50;;;11.40;99.90;;;;;;4990990;28;20058;-74
2023/04/24 04:17:52;;;;;;;2.63;0.60;;;11.40;99.90;;;;;;4991362;28;20816;-75
2023/04/24 04:20:18;;;;;;;2.58;0.60;;;11.40;99.90;;;;;;5006236;28;20057;-75
2023/04/24 04:22:43;;;;;;;1.48;0.68;;;11.40;99.90;;;;;;5004959;28;20069;-75
2023/04/24 04:25:09;;;;;;;3.03;0.75;;;11.30;99.90;;;;;;4985204;28;20116;-75
2023/04/24 04:27:38;;;;;;;1.63;0.80;;;11.40;99.90;;;;;;4990036;28;20035;-76
2023/04/24 04:30:08;;;;;;;1.10;0.60;;;11.40;99.90;;;;;;4988551;28;20015;-76
2023/04/24 04:32:37;;;;;;;1.40;0.60;;;11.40;99.90;;;;;;4988134;28;20030;-76
2023/04/24 04:35:03;;;;;;;3.35;0.90;;;11.40;99.90;;;;;;4984417;28;20030;-76
2023/04/24 04:37:35;;;;;;;1.80;1.08;;;11.40;99.90;;;;;;4985979;28;20562;-75
2023/04/24 04:40:01;;;;;;;2.25;0.98;;;11.40;99.90;;;;;;4987493;28;20030;-76
2023/04/24 04:42:30;;;;;;;2.45;0.70;;;11.40;99.90;;;;;;4988572;28;20073;-76
2023/04/24 04:45:03;;;;;;;3.70;0.80;;;11.40;99.90;;;;;;4990031;28;20022;-75
2023/04/24 04:47:32;;;;;;;1.92;0.98;;;11.40;99.90;;;;;;4986496;28;20027;-75
2023/04/24 04:49:57;;;;;;;2.35;1.00;;;11.40;99.90;;;;;;5005336;28;20058;-77
2023/04/24 04:52:29;;;;;;;3.67;1.30;;;11.40;99.90;;;;;;4989079;28;20428;-77
2023/04/24 04:55:01;;;;;;;2.78;0.65;;;11.40;99.90;;;;;;4987029;28;20022;-75
2023/04/24 04:57:32;;;;;;;4.32;1.00;;;11.40;99.90;;;;;;4992124;28;20030;-76
2023/04/24 05:00:05;;;;;;;4.00;0.90;;;11.20;99.90;;;;;;4982474;28;20112;-76
2023/04/24 05:02:35;;;;;;;7.18;1.13;;;11.10;99.90;;;;;;4989133;28;20460;-76
2023/04/24 05:05:13;;;;;;;2.08;1.00;;;11.10;99.90;;;;;;4989149;28;20101;-76
2023/04/24 05:07:42;;;;;;;2.55;1.23;;;10.80;99.90;;;;;;4988303;28;20395;-75
2023/04/24 05:10:08;;;;;;;3.70;1.25;;;10.70;99.90;;;;;;4986368;28;20031;-75
2023/04/24 05:12:45;;;;;;;2.78;1.10;;;10.70;99.90;;;;;;4986671;28;20077;-76
2023/04/24 05:15:11;;;;;;;3.88;1.20;;;10.70;99.90;;;;;;4986526;28;20475;-75
2023/04/24 05:17:37;;;;;;;2.40;1.00;;;10.70;99.90;;;;;;4988924;28;20073;-75
2023/04/24 05:20:05;;;;;;;3.38;1.20;;;10.70;99.90;;;;;;4987126;28;20120;-76
2023/04/24 05:22:33;;;;;;;2.17;0.90;;;10.60;99.90;;;;;;4991339;28;20088;-77
2023/04/24 05:24:59;;;;;;;3.30;1.33;;;10.60;99.90;;;;;;4985680;28;20152;-78
2023/04/24 05:27:25;;;;;;;6.60;1.25;;;10.50;99.90;;;;;;4988379;28;20031;-77
2023/04/24 05:29:51;;;;;;;3.22;1.05;;;10.40;99.90;;;;;;4983074;28;20541;-77
2023/04/24 05:32:19;;;;;;;4.53;1.33;;;10.40;99.90;;;;;;4988604;28;20125;-77
2023/04/24 05:34:45;;;;;;;1.30;1.00;;;10.40;99.90;;;;;;4989170;28;20038;-76
2023/04/24 05:37:11;;;;;;;1.83;1.15;;;10.30;99.90;;;;;;4988289;28;20022;-77
2023/04/24 05:39:40;;;;;;;4.13;1.10;;;10.30;99.90;;;;;;4986621;28;20034;-77
2023/04/24 05:42:06;;;;;;;2.40;0.85;;;10.30;99.90;;;;;;4988584;28;20105;-77
2023/04/24 05:44:35;;;;;;;2.70;1.15;;;10.30;99.90;;;;;;4986875;28;20161;-76
2023/04/24 05:47:01;;;;;;;2.33;1.02;;;10.30;99.90;;;;;;4987160;28;20026;-75
2023/04/24 05:49:27;;;;;;;1.50;0.95;;;10.30;99.90;;;;;;4985221;28;20031;-76
2023/04/24 05:51:52;;;;;;;1.98;1.30;;;10.30;99.90;;;;;;4982841;28;20037;-77
2023/04/24 05:54:18;;;;;;;2.35;1.40;;;10.30;99.90;;;;;;5003495;28;20121;-77
2023/04/24 05:56:44;;;;;;;4.38;1.25;;;10.30;99.90;;;;;;4985588;28;20125;-77
2023/04/24 05:59:13;;;;;;;2.42;1.00;;;10.30;99.90;;;;;;5000554;28;20034;-77
2023/04/24 06:01:39;;;;;;;1.67;1.05;;;10.30;99.90;;;;;;4988809;28;20507;-77
2023/04/24 06:04:04;;;;;;;3.90;1.20;;;10.30;99.90;;;;;;4987154;28;20022;-76
2023/04/24 06:06:31;;;;;;;1.63;1.20;;;10.30;99.90;;;;;;4987829;28;20033;-76
2023/04/24 06:08:56;;;;;;;2.13;1.33;;;10.40;99.90;;;;;;4988364;28;20026;-76
2023/04/24 06:11:22;;;;;;;3.28;1.00;;;10.40;99.90;;;;;;4987436;28;20034;-76
2023/04/24 06:13:48;;;;;;;2.15;1.00;;;10.50;99.90;;;;;;5002922;28;20030;-76
2023/04/24 06:16:14;;;;;;;3.10;1.08;;;10.50;99.90;;;;;;4996250;28;20033;-75
2023/04/24 06:18:39;;;;;;;2.05;1.08;;;10.50;99.90;;;;;;4990450;28;20039;-75
2023/04/24 06:21:06;;;;;;;1.70;1.00;;;10.60;99.90;;;;;;4988143;28;20108;-75
2023/04/24 06:23:32;;;;;;;2.35;0.95;;;10.70;99.90;;;;;;4988530;28;20113;-76
2023/04/24 06:25:59;;;;;;;2.33;1.10;;;10.80;99.90;;;;;;4989402;28;20026;-75
2023/04/24 06:28:24;;;;;;;1.80;1.20;;;10.90;99.90;;;;;;4989175;28;20096;-76
2023/04/24 06:30:50;;;;;;;3.20;1.20;;;10.90;99.90;;;;;;4991490;28;20026;-76
2023/04/24 06:33:16;;;;;;;3.17;1.05;;;11.00;99.90;;;;;;4985623;28;20057;-75
2023/04/24 06:35:42;;;;;;;3.58;1.25;;;11.10;99.90;;;;;;4986980;28;20027;-76
2023/04/24 06:38:08;;;;;;;3.00;1.13;;;11.20;99.90;;;;;;4989095;28;20483;-76
2023/04/24 06:40:33;;;;;;;3.65;1.20;;;11.30;99.90;;;;;;4985311;28;20027;-75
2023/04/24 06:42:59;;;;;;;6.95;1.48;;;11.40;99.90;;;;;;5003338;28;20034;-72
2023/04/24 06:45:25;;;;;;;2.63;1.35;;;11.40;99.90;;;;;;4986413;28;20030;-75
2023/04/24 06:47:51;;;;;;;2.05;0.90;;;11.60;99.90;;;;;;5004323;28;20213;-75
2023/04/24 06:50:17;;;;;;;1.80;1.00;;;11.60;99.90;;;;;;4986369;28;20030;-75
2023/04/24 06:52:43;;;;;;;5.43;1.05;;;11.70;99.90;;;;;;4987838;28;20026;-76
2023/04/24 06:55:11;;;;;;;2.03;1.38;;;11.60;99.90;;;;;;4985885;28;20030;-75
2023/04/24 06:57:36;;;;;;;1.35;0.98;;;11.70;99.90;;;;;;4979491;28;20141;-76
2023/04/24 07:00:04;;;;;;;2.30;1.30;;;11.70;99.90;;;;;;4985371;28;20479;-75
2023/04/24 07:02:30;;;;;;;2.50;1.00;;;11.70;99.90;;;;;;4982810;28;20038;-76
2023/04/24 07:04:56;;;;;;;1.27;0.88;;;11.70;99.90;;;;;;5002150;28;20093;-75
2023/04/24 07:07:23;;;;;;;2.13;1.20;;;11.60;99.90;;;;;;4990275;28;20448;-76
2023/04/24 07:09:50;;;;;;;2.47;1.42;;;11.60;99.90;;;;;;4989307;28;20545;-76
2023/04/24 07:12:16;;;;;;;3.40;1.40;;;11.80;99.90;;;;;;4987668;28;20027;-76
2023/04/24 07:14:43;;;;;;;1.63;1.30;;;11.80;99.90;;;;;;5001064;28;20439;-75
2023/04/24 07:17:08;;;;;;;1.75;1.15;;;11.90;99.90;;;;;;4999709;28;20072;-76
2023/04/24 07:19:37;;;;;;;3.53;1.10;;;11.90;99.90;;;;;;4987242;28;20062;-76
2023/04/24 07:22:03;;;;;;;1.85;1.38;;;11.90;99.90;;;;;;4988225;28;20035;-76
2023/04/24 07:24:29;;;;;;;3.42;1.35;;;12.00;99.90;;;;;;4986247;28;20022;-76
2023/04/24 07:26:55;;;;;;;1.60;0.98;;;12.00;99.90;;;;;;4985536;28;20026;-75
2023/04/24 07:29:21;;;;;;;2.45;1.30;;;12.10;99.90;;;;;;4980486;28;20113;-76
2023/04/24 07:31:47;;;;;;;1.30;1.08;;;12.10;99.90;;;;;;4985274;28;20026;-76
2023/04/24 07:34:12;;;;;;;2.50;1.20;;;12.10;99.90;;;;;;4982596;28;20061;-76
2023/04/24 07:36:38;;;;;;;3.08;1.55;;;12.00;99.90;;;;;;4984155;28;20453;-76
2023/04/24 07:39:04;;;;;;;7.72;1.73;;;11.90;99.90;;;;;;4998326;28;20034;-75
2023/04/24 07:41:30;;;;;;;2.97;1.27;;;11.80;99.90;;;;;;5004628;28;20380;-75
2023/04/24 07:43:56;;;;;;;4.30;1.75;;;11.60;99.90;;;;;;4987087;28;20044;-75
2023/04/24 07:46:23;;;;;;;4.88;1.10;;;11.60;99.90;;;;;;4983905;28;20022;-75
2023/04/24 07:48:49;;;;;;;2.80;1.30;;;11.50;99.90;;;;;;4988615;28;20034;-75
2023/04/24 07:51:15;;;;;;;2.95;1.65;;;11.60;99.90;;;;;;4991881;28;20033;-75
2023/04/24 07:53:41;;;;;;;4.40;1.73;;;11.60;99.90;;;;;;4990518;28;20534;-75
2023/04/24 07:56:07;;;;;;;2.08;0.90;;;11.70;99.90;;;;;;4988944;28;20440;-75
2023/04/24 07:58:33;;;;;;;2.30;1.30;;;11.70;99.90;;;;;;4987824;28;20113;-75
2023/04/24 08:00:59;;;;;;;2.53;1.27;;;11.70;99.90;;;;;;4990579;28;20074;-74
2023/04/24 08:03:24;;;;;;;2.85;1.08;;;11.70;99.90;;;;;;4992904;28;20034;-74
2023/04/24 08:05:50;;;;;;;2.55;1.10;;;11.70;99.90;;;;;;4992924;28;20062;-75
2023/04/24 08:08:22;;;;;;;2.03;1.00;;;11.70;99.90;;;;;;4991299;28;20019;-75
2023/04/24 08:10:47;;;;;;;2.97;0.90;;;11.80;99.90;;;;;;5008296;28;20551;-75
2023/04/24 08:13:13;;;;;;;5.15;1.55;;;11.80;99.90;;;;;;4991237;28;20023;-75
2023/04/24 08:15:39;;;;;;;4.90;1.23;;;11.90;99.90;;;;;;5007387;28;20026;-75
2023/04/24 08:18:05;;;;;;;4.97;1.05;;;11.90;99.90;;;;;;4986636;28;20025;-76
2023/04/24 08:20:30;;;;;;;2.38;1.02;;;11.80;99.90;;;;;;4989432;28;20022;-76
2023/04/24 08:22:56;;;;;;;2.03;1.00;;;12.00;99.90;;;;;;4992658;28;20100;-76
2023/04/24 08:25:24;;;;;;;3.38;0.90;;;12.10;99.90;;;;;;4988555;28;20023;-76
2023/04/24 08:27:50;;;;;;;2.85;1.20;;;12.20;99.90;;;;;;4986046;28;20031;-76
2023/04/24 08:30:16;;;;;;;2.08;1.08;;;12.20;99.90;;;;;;4991492;28;20050;-76
2023/04/24 08:32:41;;;;;;;3.53;1.00;;;12.20;99.90;;;;;;4985066;28;20081;-76
2023/04/24 08:35:11;;;;;;;2.05;0.80;;;12.10;99.90;;;;;;4993679;28;20030;-75
2023/04/24 08:37:37;;;;;;;1.88;1.10;;;12.10;99.90;;;;;;4990201;28;20118;-75
2023/04/24 08:40:13;;;;;;;3.58;1.30;;;12.00;99.90;;;;;;4990807;28;20484;-75
2023/04/24 08:42:39;;;;;;;4.20;1.23;;;11.90;99.90;;;;;;4989255;28;20023;-75
2023/04/24 08:45:06;;;;;;;2.17;1.58;;;11.80;99.90;;;;;;4988209;28;20030;-74
2023/04/24 08:47:32;;;;;;;2.28;1.30;;;11.80;99.90;;;;;;4990470;28;20122;-75
2023/04/24 08:49:59;;;;;;;2.15;0.98;;;11.80;99.90;;;;;;4986271;28;20596;-75
2023/04/24 08:52:29;;;;;;;1.52;1.00;;;11.80;99.90;;;;;;4986825;28;20105;-75
2023/04/24 08:54:56;;;;;;;4.00;1.08;;;11.80;99.90;;;;;;4990932;28;20169;-75
2023/04/24 08:57:22;;;;;;;4.25;1.38;;;11.70;99.90;;;;;;4988390;28;20030;-75
2023/04/24 08:59:49;;;;;;;2.35;1.00;;;11.80;99.90;;;;;;4990006;28;20065;-75
2023/04/24 09:02:16;;;;;;;1.88;1.00;;;11.70;99.90;;;;;;4988325;28;20096;-75
2023/04/24 09:04:44;;;;;;;3.58;1.30;;;11.70;99.90;;;;;;5004767;28;20069;-74
2023/04/24 09:07:11;;;;;;;6.85;1.20;;;11.70;99.90;;;;;;4987576;28;20027;-75
2023/04/24 09:09:38;;;;;;;2.15;1.00;;;11.80;99.90;;;;;;4990730;28;20070;-75
2023/04/24 09:12:04;;;;;;;3.00;0.98;;;11.80;99.90;;;;;;5003731;28;20027;-75
2023/04/24 09:14:31;;;;;;;3.45;1.20;;;11.80;99.90;;;;;;4988923;28;20050;-75
2023/04/24 09:16:57;;;;;;;2.65;1.08;;;11.80;99.90;;;;;;4988234;28;20041;-75
2023/04/24 09:19:23;;;;;;;4.55;1.13;;;11.80;99.90;;;;;;5001860;28;20027;-74
2023/04/24 09:21:49;;;;;;;1.90;0.90;;;11.90;99.90;;;;;;4990631;28;20042;-75
2023/04/24 09:24:17;;;;;;;3.95;1.08;;;11.90;99.90;;;;;;4985753;28;20034;-75
2023/04/24 09:26:44;;;;;;;1.58;0.85;;;11.90;99.90;;;;;;5000173;28;20480;-75
2023/04/24 09:29:17;;;;;;;2.15;1.17;;;11.90;99.90;;;;;;4985870;28;20026;-75
2023/04/24 09:31:44;;;;;;;5.63;1.20;;;11.90;99.90;;;;;;5000229;28;20025;-75
2023/04/24 09:34:09;;;;;;;2.25;1.00;;;12.00;99.90;;;;;;5001703;28;20041;-75
2023/04/24 09:36:43;;;;;;;3.40;1.10;;;12.00;99.90;;;;;;4990114;28;20030;-75
2023/04/24 09:39:10;;;;;;;4.22;1.00;;;12.00;99.90;;;;;;4985516;28;20029;-75
2023/04/24 09:41:56;;;;;;;2.45;1.15;;;12.00;99.90;;;;;;4989239;28;20387;-74
2023/04/24 09:44:24;;;;;;;2.75;1.13;;;12.00;99.90;;;;;;4982117;28;20015;-75
2023/04/24 09:46:57;;;;;;;5.20;1.73;;;12.10;99.90;;;;;;4978330;28;20396;-76
2023/04/24 09:49:28;;;;;;;4.10;1.10;;;12.10;99.90;;;;;;4990277;28;20029;-76
2023/04/24 09:52:05;;;;;;;3.08;1.40;;;12.00;99.90;;;;;;4988634;28;20487;-76
2023/04/24 09:54:31;;;;;;;4.20;1.30;;;12.10;99.90;;;;;;4992927;28;20702;-76
2023/04/24 09:56:57;;;;;;;3.45;1.20;;;12.20;99.90;;;;;;4993656;28;20026;-75
2023/04/24 09:59:22;;;;;;;3.28;0.90;;;12.30;99.90;;;;;;4990049;28;20030;-76
2023/04/24 10:01:49;;;;;;;4.78;1.42;;;12.30;99.90;;;;;;4998343;28;20084;-75
2023/04/24 10:04:20;;;;;;;4.05;1.27;;;12.30;99.90;;;;;;5008316;28;20402;-76
2023/04/24 10:06:48;;;;;;;3.03;1.00;;;12.30;99.90;;;;;;4987435;28;20092;-76
2023/04/24 10:09:15;;;;;;;2.33;1.00;;;12.40;99.90;;;;;;4988988;28;20050;-76
2023/04/24 10:11:45;;;;;;;4.75;1.08;;;12.50;99.90;;;;;;4985753;28;20041;-76
2023/04/24 10:14:20;;;;;;;2.92;1.42;;;12.60;99.90;;;;;;4985555;28;20056;-76
2023/04/24 10:16:49;;;;;;;2.40;1.17;;;12.80;99.90;;;;;;4988774;28;20044;-75
2023/04/24 10:19:15;;;;;;;1.55;1.00;;;12.80;99.90;;;;;;4984961;28;20114;-75
2023/04/24 10:21:46;;;;;;;2.75;1.23;;;12.80;99.90;;;;;;4993740;28;20491;-75
2023/04/24 10:24:16;;;;;;;2.83;1.20;;;12.80;99.90;;;;;;4998260;28;20165;-76
2023/04/24 10:26:43;;;;;;;2.00;0.98;;;12.90;99.90;;;;;;4989514;28;20050;-76
2023/04/24 10:29:12;;;;;;;1.42;0.88;;;12.90;99.90;;;;;;4982440;28;20376;-76
2023/04/24 10:31:39;;;;;;;4.55;0.90;;;12.90;99.50;;;;;;4991824;28;20507;-75
2023/04/24 10:34:06;;;;;;;1.80;0.95;;;13.00;99.00;;;;;;4990229;28;20041;-77
2023/04/24 10:36:34;;;;;;;2.28;1.15;;;12.90;98.80;;;;;;4978010;28;20034;-75
2023/04/24 10:39:03;;;;;;;3.45;0.80;;;13.00;99.20;;;;;;4989231;28;20026;-75
2023/04/24 10:41:31;;;;;;;1.52;0.80;;;13.00;98.10;;;;;;4989034;28;20042;-79
2023/04/24 10:44:12;;;;;;;3.95;0.80;;;13.10;96.80;;;;;;4983705;28;21516;-76
2023/04/24 10:46:39;;;;;;;2.97;1.10;;;13.20;97.00;;;;;;4988425;28;20037;-76
2023/04/24 10:49:08;;;;;;;1.27;0.80;;;13.30;96.10;;;;;;4985013;28;20047;-78
2023/04/24 10:51:52;;;;;;;1.58;0.70;;;13.30;95.50;;;;;;5008883;28;20030;-76
2023/04/24 10:54:46;;;;;;;2.13;0.60;;;13.30;94.60;;;;;;4986312;28;20108;-78
2023/04/24 10:57:19;;;;;;;1.73;0.82;;;13.20;95.00;;;;;;4993659;28;20109;-75
2023/04/24 10:59:45;;;;;;;3.25;0.90;;;13.10;94.90;;;;;;4989370;28;20065;-77
2023/04/24 11:02:10;;;;;;;2.15;0.80;;;13.10;95.00;;;;;;4989270;28;20026;-76
2023/04/24 11:04:36;;;;;;;1.48;0.80;;;13.10;95.30;;;;;;4987803;28;20484;-76
2023/04/24 11:07:05;;;;;;;1.73;0.80;;;13.10;95.70;;;;;;4992638;28;20034;-76
2023/04/24 11:09:32;;;;;;;3.63;0.93;;;13.00;96.30;;;;;;4987284;28;20022;-77
2023/04/24 11:12:10;;;;;;;1.52;0.80;;;13.00;96.60;;;;;;5003110;28;20037;-77
2023/04/24 11:14:59;;;;;;;2.35;0.70;;;12.90;97.10;;;;;;4988103;28;20431;-76
2023/04/24 11:17:36;;;;;;;2.15;0.80;;;12.90;97.70;;;;;;4982676;28;20462;-76
2023/04/24 11:20:25;;;;;;;1.88;0.75;;;12.90;97.30;;;;;;4985187;28;20066;-76
2023/04/24 11:22:54;;;;;;;1.90;0.80;;;12.90;97.50;;;;;;4998232;28;20039;-76
2023/04/24 11:25:22;;;;;;;1.38;0.80;;;12.80;97.70;;;;;;4987455;28;20026;-78
2023/04/24 11:27:49;;;;;;;1.15;0.77;;;12.80;97.00;;;;;;4991363;28;20027;-77
2023/04/24 11:30:20;;;;;;;1.33;0.65;;;12.80;97.00;;;;;;5006795;28;20077;-76
2023/04/24 11:32:51;;;;;;;1.95;0.60;;;13.00;97.10;;;;;;4993016;28;20034;-76
2023/04/24 11:35:17;;;;;;;2.38;0.75;;;13.00;96.60;;;;;;4986355;28;20230;-77
2023/04/24 11:37:51;;;;;;;1.13;0.70;;;13.10;96.50;;;;;;4986672;28;20502;-75
2023/04/24 11:40:20;;;;;;;3.63;0.82;;;13.20;96.80;;;;;;4990058;28;20045;-79
2023/04/24 11:42:50;;;;;;;1.23;0.50;;;13.30;96.80;;;;;;4986455;28;20452;-77
2023/04/24 11:45:19;;;;;;;1.67;0.65;;;13.30;96.40;;;;;;4988500;28;20776;-76
2023/04/24 11:47:45;;;;;;;1.52;0.50;;;13.30;96.40;;;;;;4988540;28;20026;-76
2023/04/24 11:50:13;;;;;;;1.95;0.57;;;13.30;95.70;;;;;;4984499;28;20053;-76
2023/04/24 11:52:41;;;;;;;2.25;0.70;;;13.30;96.20;;;;;;5007115;28;20026;-77
2023/04/24 11:55:16;;;;;;;3.17;0.80;;;13.20;95.90;;;;;;4990807;28;20168;-77
2023/04/24 11:57:46;;;;;;;2.40;0.70;;;13.20;95.50;;;;;;4992062;28;20033;-76
2023/04/24 12:00:20;;;;;;;1.25;0.63;;;13.20;95.70;;;;;;4991732;28;20030;-76
2023/04/24 12:02:47;;;;;;;1.65;0.60;;;13.10;95.50;;;;;;4984115;28;20026;-75
2023/04/24 12:05:30;;;;;;;2.83;0.73;;;13.00;95.60;;;;;;4990375;28;20019;-77
2023/04/24 12:07:56;;;;;;;2.60;0.80;;;13.10;95.70;;;;;;4988198;28;20023;-77
2023/04/24 12:10:27;;;;;;;3.10;0.60;;;13.00;95.60;;;;;;4988687;28;20018;-78
2023/04/24 12:12:55;;;;;;;6.63;0.73;;;13.00;96.20;;;;;;4992041;28;20030;-78
2023/04/24 12:15:21;;;;;;;1.40;0.80;;;13.00;95.60;;;;;;4989616;28;20059;-77
2023/04/24 12:17:48;;;;;;;1.80;0.73;;;13.00;96.00;;;;;;4987323;28;20030;-77
2023/04/24 12:20:14;;;;;;;1.10;0.60;;;13.00;96.20;;;;;;4989002;28;20038;-77
2023/04/24 12:22:59;;;;;;;0.93;0.55;;;12.90;95.90;;;;;;5002753;28;20030;-77
2023/04/24 12:25:27;;;;;;;1.15;0.65;;;12.70;95.80;;;;;;4985029;28;20091;-78
2023/04/24 12:28:14;;;;;;;0.98;0.50;;;12.70;97.20;;;;;;4991305;28;20085;-75
2023/04/24 12:30:48;;;;;;;1.65;0.70;;;12.60;98.80;;;;;;4986589;28;20472;-77
2023/04/24 12:33:18;;;;;;;0.82;0.60;;;12.60;98.60;;;;;;4986717;28;20571;-76
2023/04/24 12:35:44;;;;;;;4.70;0.77;;;12.60;97.60;;;;;;4990215;28;20042;-76
2023/04/24 12:38:21;;;;;;;1.50;0.60;;;12.70;97.40;;;;;;4988732;28;20318;-75
2023/04/24 12:40:47;;;;;;;2.08;0.70;;;12.80;97.10;;;;;;5004276;28;20030;-76
2023/04/24 12:43:19;;;;;;;1.75;0.90;;;13.00;96.20;;;;;;4989177;28;20023;-76
2023/04/24 12:45:47;;;;;;;3.25;0.80;;;13.00;95.50;;;;;;5007097;28;20035;-76
2023/04/24 12:48:13;;;;;;;2.15;0.80;;;13.00;95.10;;;;;;4988310;28;20041;-76
2023/04/24 12:50:39;;;;;;;0.88;0.60;;;13.00;95.30;;;;;;4990901;28;20336;-76
2023/04/24 12:53:06;;;;;;;3.20;0.70;;;13.10;95.40;;;;;;4989463;28;20030;-75